Time;durP1;ratioP1;P1;durP2;ratioP2;P2;SDS_P1;SDS_P2;PMS_P1;PMS_P2;Temp;Humidity;BMP_temperature;BMP_pressure;BME280_temperature;BME280_humidity;BME280_pressure;Samples;Min_cycle;Max_cycle;Signal;HPM_P1;HPM_P2
2022/11/01 00:02:01;;;;;;;6.80;3.65;;;18.00;99.90;;;;;;5012622;28;20164;-77
2022/11/01 00:04:26;;;;;;;7.65;3.40;;;18.00;99.90;;;;;;5012547;28;20175;-76
2022/11/01 00:06:52;;;;;;;6.63;3.53;;;18.00;99.90;;;;;;4994622;28;20650;-77
2022/11/01 00:09:18;;;;;;;7.00;4.47;;;18.00;99.90;;;;;;5012325;28;20179;-76
2022/11/01 00:11:44;;;;;;;7.95;3.70;;;18.00;99.90;;;;;;5012558;28;20168;-76
2022/11/01 00:14:15;;;;;;;9.90;3.42;;;18.00;99.90;;;;;;5012800;28;20208;-81
2022/11/01 00:16:41;;;;;;;4.90;3.15;;;18.10;99.90;;;;;;5012560;28;20176;-76
2022/11/01 00:19:07;;;;;;;5.43;3.20;;;18.10;99.90;;;;;;5012698;28;20168;-79
2022/11/01 00:21:33;;;;;;;10.43;3.72;;;18.10;99.90;;;;;;5012306;28;20216;-82
2022/11/01 00:23:58;;;;;;;8.32;3.60;;;18.10;99.90;;;;;;5011768;28;20530;-76
2022/11/01 00:26:24;;;;;;;12.27;4.13;;;18.00;99.90;;;;;;5012572;28;20184;-78
2022/11/01 00:28:50;;;;;;;18.42;3.33;;;18.00;99.90;;;;;;5012337;28;20169;-76
2022/11/01 00:31:18;;;;;;;13.80;3.70;;;18.00;99.90;;;;;;5012569;28;20161;-76
2022/11/01 00:33:43;;;;;;;6.43;3.30;;;18.00;99.90;;;;;;5011486;28;20246;-83
2022/11/01 00:36:10;;;;;;;11.70;3.58;;;18.00;99.90;;;;;;5016601;28;20196;-77
2022/11/01 00:38:35;;;;;;;7.18;3.53;;;18.00;99.90;;;;;;5017130;28;20216;-84
2022/11/01 00:41:02;;;;;;;6.20;3.92;;;18.00;99.90;;;;;;5017352;28;20579;-79
2022/11/01 00:43:30;;;;;;;13.52;4.45;;;18.00;99.90;;;;;;5016862;28;20168;-84
2022/11/01 00:45:55;;;;;;;10.93;3.17;;;18.10;99.90;;;;;;5016410;28;20160;-89
2022/11/01 00:48:21;;;;;;;6.50;3.17;;;18.20;99.90;;;;;;5017027;28;20323;-87
2022/11/01 00:50:47;;;;;;;8.57;3.58;;;18.30;99.90;;;;;;5016877;28;20215;-86
2022/11/01 00:53:13;;;;;;;10.38;3.47;;;18.30;99.90;;;;;;5016311;28;20188;-76
2022/11/01 00:55:39;;;;;;;8.10;3.72;;;18.20;99.90;;;;;;5016800;28;20175;-88
2022/11/01 00:58:05;;;;;;;5.28;2.83;;;18.10;99.90;;;;;;5017398;28;20183;-90
2022/11/01 01:00:30;;;;;;;7.47;3.42;;;18.10;99.90;;;;;;5017297;28;20251;-85
2022/11/01 01:02:56;;;;;;;14.90;3.10;;;18.20;99.90;;;;;;5016167;28;20526;-85
2022/11/01 01:05:22;;;;;;;11.98;3.22;;;18.10;99.90;;;;;;5016034;28;20172;-75
2022/11/01 01:07:47;;;;;;;11.30;3.75;;;18.20;99.90;;;;;;5016073;28;20701;-77
2022/11/01 01:10:13;;;;;;;7.97;4.05;;;18.20;99.90;;;;;;5015944;28;20259;-77
2022/11/01 01:12:38;;;;;;;3.42;3.13;;;18.20;99.90;;;;;;5015777;28;20172;-78
2022/11/01 01:15:05;;;;;;;15.48;3.47;;;18.20;99.90;;;;;;5015652;28;20204;-76
2022/11/01 01:17:31;;;;;;;9.52;3.35;;;18.10;99.90;;;;;;5015543;28;20650;-86
2022/11/01 01:19:57;;;;;;;3.92;2.80;;;18.10;99.90;;;;;;5015965;28;20627;-77
2022/11/01 01:22:23;;;;;;;3.47;3.17;;;18.10;99.90;;;;;;5015458;28;20176;-77
2022/11/01 01:24:48;;;;;;;5.05;2.95;;;18.10;99.90;;;;;;5015427;28;20238;-76
2022/11/01 01:27:15;;;;;;;4.45;2.40;;;18.10;99.90;;;;;;5015433;28;20196;-76
2022/11/01 01:29:40;;;;;;;6.72;2.78;;;17.90;99.90;;;;;;5015551;28;20675;-76
2022/11/01 01:32:14;;;;;;;6.13;2.60;;;17.90;99.90;;;;;;5014157;28;20255;-75
2022/11/01 01:34:40;;;;;;;5.38;2.17;;;18.00;99.90;;;;;;5015418;28;20258;-76
2022/11/01 01:37:07;;;;;;;7.20;3.10;;;18.00;99.90;;;;;;5015059;28;20184;-76
2022/11/01 01:39:33;;;;;;;9.90;3.60;;;17.90;99.90;;;;;;5014087;28;20172;-76
2022/11/01 01:42:29;;;;;;;9.27;2.55;;;17.80;99.90;;;;;;5014796;28;20191;-76
2022/11/01 01:44:55;;;;;;;4.90;2.30;;;17.90;99.90;;;;;;5005814;28;20267;-76
2022/11/01 01:47:25;;;;;;;5.47;1.92;;;17.70;99.90;;;;;;5014546;28;20282;-76
2022/11/01 01:50:16;;;;;;;4.32;2.50;;;17.50;99.90;;;;;;5015214;28;20192;-79
2022/11/01 01:53:12;;;;;;;5.72;1.85;;;17.50;99.90;;;;;;5011018;28;20242;-76
2022/11/01 01:55:47;;;;;;;4.95;1.92;;;17.50;99.90;;;;;;5017978;28;20181;-79
2022/11/01 01:58:19;;;;;;;4.15;2.00;;;17.50;99.90;;;;;;5016780;28;20552;-76
2022/11/01 02:00:45;;;;;;;3.25;1.80;;;17.40;99.90;;;;;;5018420;28;20246;-76
2022/11/01 02:03:12;;;;;;;7.55;2.00;;;17.40;99.90;;;;;;5019869;28;20188;-75
2022/11/01 02:05:50;;;;;;;3.67;1.60;;;17.30;99.90;;;;;;5026021;28;20169;-85
2022/11/01 02:08:25;;;;;;;3.45;1.42;;;17.20;99.90;;;;;;5023864;28;20188;-89
2022/11/01 02:10:51;;;;;;;6.57;1.58;;;17.20;99.90;;;;;;5024485;28;20152;-86
2022/11/01 02:13:17;;;;;;;2.15;1.40;;;17.00;99.90;;;;;;5026783;28;20165;-83
2022/11/01 02:16:22;;;;;;;7.40;1.55;;;16.90;99.90;;;;;;5025540;28;20191;-81
2022/11/01 02:18:56;;;;;;;1.60;1.05;;;16.80;99.90;;;;;;5027633;28;20211;-85
2022/11/01 02:22:05;;;;;;;5.38;0.80;;;16.70;99.90;;;;;;5023590;28;20185;-77
2022/11/01 02:24:57;;;;;;;5.75;1.00;;;16.70;99.90;;;;;;5027027;28;20192;-79
2022/11/01 02:27:27;;;;;;;1.00;0.90;;;16.60;99.90;;;;;;5026146;28;20250;-79
2022/11/01 02:30:19;;;;;;;2.72;0.70;;;16.50;99.90;;;;;;5026085;28;20184;-77
2022/11/01 02:33:07;;;;;;;4.25;0.70;;;16.50;99.90;;;;;;5019799;28;20196;-90
2022/11/01 02:35:57;;;;;;;1.52;0.60;;;16.30;99.90;;;;;;5015227;28;20191;-77
2022/11/01 02:38:33;;;;;;;1.27;0.80;;;16.40;99.90;;;;;;5015546;28;20185;-81
2022/11/01 02:41:13;;;;;;;2.33;0.70;;;16.30;99.90;;;;;;5016165;28;20172;-78
2022/11/01 02:43:43;;;;;;;3.58;0.52;;;16.20;99.90;;;;;;5016309;28;20176;-76
2022/11/01 02:48:55;;;;;;;1.38;0.80;;;16.00;99.90;;;;;;5016942;28;20246;-76
2022/11/01 02:51:23;;;;;;;5.60;0.60;;;15.90;99.90;;;;;;5019328;28;20161;-76
2022/11/01 02:53:49;;;;;;;1.45;0.68;;;15.90;99.90;;;;;;5023972;28;20208;-76
2022/11/01 02:56:17;;;;;;;1.65;0.60;;;15.90;99.90;;;;;;5022094;28;20607;-78
2022/11/01 02:58:45;;;;;;;5.40;0.50;;;15.80;99.90;;;;;;5018444;28;20180;-77
2022/11/01 03:01:18;;;;;;;0.90;0.65;;;15.80;99.90;;;;;;5017839;28;20172;-76
2022/11/01 03:03:46;;;;;;;2.90;0.50;;;15.70;99.90;;;;;;5018476;28;20180;-76
2022/11/01 03:06:25;;;;;;;2.50;0.70;;;15.70;99.90;;;;;;5018946;28;20171;-77
2022/11/01 03:08:57;;;;;;;3.13;0.60;;;15.70;99.90;;;;;;5020011;28;20192;-76
2022/11/01 03:11:42;;;;;;;1.42;0.40;;;15.70;99.90;;;;;;5013808;28;20267;-76
2022/11/01 03:14:30;;;;;;;6.00;1.05;;;15.70;99.90;;;;;;5013621;28;20204;-76
2022/11/01 03:17:13;;;;;;;1.45;0.60;;;15.60;99.90;;;;;;5013107;28;20203;-78
2022/11/01 03:20:19;;;;;;;1.92;0.65;;;15.50;99.90;;;;;;5012917;28;20165;-76
2022/11/01 03:22:56;;;;;;;6.85;0.93;;;15.50;99.90;;;;;;4972221;28;20264;-75
2022/11/01 03:25:43;;;;;;;2.30;0.60;;;15.40;99.90;;;;;;5009301;28;20196;-77
2022/11/01 03:28:49;;;;;;;2.35;0.73;;;15.40;99.90;;;;;;5012989;28;20716;-76
2022/11/01 03:31:20;;;;;;;3.00;0.70;;;15.40;99.90;;;;;;4971678;28;20178;-76
2022/11/01 03:34:14;;;;;;;0.93;0.60;;;15.30;99.90;;;;;;5007258;28;20694;-75
2022/11/01 03:36:46;;;;;;;5.43;0.80;;;15.40;99.90;;;;;;5012669;28;20208;-75
2022/11/01 03:39:17;;;;;;;1.85;0.60;;;15.50;99.90;;;;;;5013057;28;20200;-77
2022/11/01 03:41:47;;;;;;;1.80;0.63;;;15.40;99.90;;;;;;5013258;28;20175;-76
2022/11/01 03:44:13;;;;;;;5.63;0.70;;;15.30;99.90;;;;;;5013156;28;20189;-76
2022/11/01 03:46:40;;;;;;;0.98;0.50;;;15.40;99.90;;;;;;5013013;28;20165;-76
2022/11/01 03:49:06;;;;;;;3.03;0.77;;;15.40;99.90;;;;;;5013016;28;20168;-77
2022/11/01 03:51:31;;;;;;;4.18;0.90;;;15.30;99.90;;;;;;5013206;28;20252;-79
2022/11/01 03:53:57;;;;;;;1.30;0.70;;;15.20;99.90;;;;;;5013279;28;20670;-85
2022/11/01 03:56:23;;;;;;;1.90;0.63;;;15.20;99.90;;;;;;5013380;28;20174;-79
2022/11/01 03:58:49;;;;;;;1.98;0.90;;;15.30;99.90;;;;;;5013165;28;20192;-76
2022/11/01 04:01:16;;;;;;;8.85;0.80;;;15.30;99.90;;;;;;5013149;28;20235;-76
2022/11/01 04:03:42;;;;;;;1.27;0.80;;;15.30;99.90;;;;;;5012728;28;20259;-76
2022/11/01 04:06:08;;;;;;;1.17;0.70;;;15.30;99.90;;;;;;5012610;28;20180;-79
2022/11/01 04:08:35;;;;;;;3.40;0.90;;;15.20;99.90;;;;;;5012566;28;20588;-75
2022/11/01 04:11:02;;;;;;;6.30;0.65;;;15.20;99.90;;;;;;5012833;28;20168;-79
2022/11/01 04:13:28;;;;;;;0.73;0.38;;;15.20;99.90;;;;;;5012378;28;20200;-75
2022/11/01 04:21:24;;;;;;;4.78;0.75;;;15.20;99.90;;;;;;5012688;28;20183;-76
2022/11/01 04:23:51;;;;;;;1.70;0.68;;;15.20;99.90;;;;;;5012476;28;20252;-80
2022/11/01 04:26:19;;;;;;;3.78;0.68;;;15.20;99.90;;;;;;5012710;28;20188;-77
2022/11/01 04:28:55;;;;;;;4.47;1.00;;;15.10;99.90;;;;;;5012412;28;20227;-78
2022/11/01 04:31:22;;;;;;;2.42;0.57;;;15.10;99.90;;;;;;5012371;28;20202;-76
2022/11/01 04:33:49;;;;;;;6.68;0.93;;;15.20;99.90;;;;;;5012029;28;20774;-76
2022/11/01 04:36:14;;;;;;;3.45;0.65;;;15.00;99.90;;;;;;5012269;28;20630;-75
2022/11/01 04:38:40;;;;;;;2.00;0.70;;;15.00;99.90;;;;;;5012156;28;20187;-75
2022/11/01 04:41:05;;;;;;;2.55;0.55;;;14.90;99.90;;;;;;5012320;28;20233;-75
2022/11/01 04:43:31;;;;;;;2.65;0.60;;;14.80;99.90;;;;;;5012345;28;20172;-75
2022/11/01 04:45:57;;;;;;;3.40;0.85;;;14.80;99.90;;;;;;5012085;28;20187;-77
2022/11/01 04:48:23;;;;;;;4.18;0.95;;;14.70;99.90;;;;;;5012274;28;20195;-75
2022/11/01 04:50:49;;;;;;;1.77;0.63;;;14.70;99.90;;;;;;5012336;28;20188;-77
2022/11/01 04:53:15;;;;;;;2.50;0.90;;;14.60;99.90;;;;;;5011779;28;20169;-76
2022/11/01 04:55:40;;;;;;;1.33;0.70;;;14.60;99.90;;;;;;5012226;28;20173;-76
2022/11/01 04:58:07;;;;;;;2.88;0.80;;;14.60;99.90;;;;;;5011953;28;20199;-75
2022/11/01 05:00:33;;;;;;;1.90;0.57;;;14.60;99.90;;;;;;5012486;28;20184;-77
2022/11/01 05:03:01;;;;;;;3.30;0.80;;;14.50;99.90;;;;;;5012302;28;20214;-77
2022/11/01 05:05:26;;;;;;;5.47;0.73;;;14.50;99.90;;;;;;5011991;28;20697;-76
2022/11/01 05:08:00;;;;;;;3.47;0.60;;;14.40;99.90;;;;;;5012099;28;20188;-76
2022/11/01 05:10:25;;;;;;;2.03;0.70;;;14.40;99.90;;;;;;5012956;28;20157;-88
2022/11/01 05:12:51;;;;;;;3.97;1.10;;;14.30;99.90;;;;;;5012769;28;20196;-76
2022/11/01 05:15:16;;;;;;;3.45;0.82;;;14.20;99.90;;;;;;5011817;28;20267;-76
2022/11/01 05:17:42;;;;;;;8.73;1.13;;;14.30;99.90;;;;;;5011533;28;20188;-78
2022/11/01 05:20:09;;;;;;;2.38;0.52;;;14.20;99.90;;;;;;5012174;28;20176;-76
2022/11/01 05:22:34;;;;;;;4.43;1.10;;;14.20;99.90;;;;;;5015901;28;20175;-78
2022/11/01 05:25:00;;;;;;;2.65;0.93;;;14.20;99.90;;;;;;5004910;28;20268;-79
2022/11/01 05:27:25;;;;;;;7.10;0.90;;;14.10;99.90;;;;;;4995704;28;20284;-75
2022/11/01 05:29:51;;;;;;;8.50;1.02;;;14.00;99.90;;;;;;4995447;28;20204;-78
2022/11/01 05:32:17;;;;;;;3.90;0.90;;;13.90;99.90;;;;;;4995596;28;20559;-76
2022/11/01 05:34:42;;;;;;;14.43;1.00;;;14.00;99.90;;;;;;4995380;28;20659;-75
2022/11/01 05:37:09;;;;;;;3.45;0.93;;;13.90;99.90;;;;;;4995712;28;20191;-78
2022/11/01 05:39:35;;;;;;;6.25;1.20;;;13.80;99.90;;;;;;4996208;28;20208;-80
2022/11/01 05:42:00;;;;;;;6.60;1.25;;;13.80;99.90;;;;;;4996114;28;20193;-79
2022/11/01 05:44:26;;;;;;;6.88;1.80;;;13.80;99.90;;;;;;4996104;28;20165;-79
2022/11/01 05:46:51;;;;;;;5.00;1.02;;;13.70;99.90;;;;;;4995725;28;20673;-77
2022/11/01 05:49:17;;;;;;;7.22;1.10;;;13.60;99.90;;;;;;4995426;28;20161;-76
2022/11/01 05:51:42;;;;;;;5.43;1.20;;;13.70;99.90;;;;;;4995385;28;20173;-77
2022/11/01 05:54:08;;;;;;;6.50;1.27;;;13.60;99.90;;;;;;4995394;28;20358;-80
2022/11/01 05:56:33;;;;;;;5.43;1.20;;;13.50;99.90;;;;;;4995038;28;20220;-76
2022/11/01 05:58:59;;;;;;;5.32;1.10;;;13.50;99.90;;;;;;4995159;28;20195;-75
2022/11/01 06:01:25;;;;;;;10.68;1.13;;;13.50;99.90;;;;;;4995143;28;20173;-75
2022/11/01 06:03:50;;;;;;;16.48;1.33;;;13.50;99.90;;;;;;4995207;28;20170;-76
2022/11/01 06:06:16;;;;;;;7.57;1.10;;;13.40;99.90;;;;;;4994998;28;20241;-75
2022/11/01 06:08:41;;;;;;;3.72;0.90;;;13.40;99.90;;;;;;4994641;28;20720;-76
2022/11/01 06:11:07;;;;;;;6.60;1.42;;;13.30;99.90;;;;;;4994921;28;20169;-75
2022/11/01 06:13:33;;;;;;;4.75;0.95;;;13.30;99.90;;;;;;4994697;28;20296;-75
2022/11/01 06:16:00;;;;;;;4.88;1.65;;;13.10;99.90;;;;;;4994914;28;20165;-76
2022/11/01 06:18:26;;;;;;;7.97;1.20;;;13.10;99.90;;;;;;4994610;28;20185;-76
2022/11/01 06:20:51;;;;;;;14.57;2.35;;;13.10;99.90;;;;;;4994939;28;20176;-75
2022/11/01 06:23:17;;;;;;;6.22;1.23;;;13.00;99.90;;;;;;4994411;28;20173;-77
2022/11/01 06:25:43;;;;;;;4.82;1.08;;;13.10;99.90;;;;;;4994510;28;20216;-76
2022/11/01 06:28:08;;;;;;;6.95;1.50;;;13.00;99.90;;;;;;4994442;28;20621;-83
2022/11/01 06:30:34;;;;;;;8.60;1.35;;;13.00;99.90;;;;;;4995554;28;20165;-86
2022/11/01 06:33:00;;;;;;;3.70;1.38;;;13.10;99.90;;;;;;4994261;28;20169;-86
2022/11/01 06:35:27;;;;;;;7.97;1.35;;;13.10;99.90;;;;;;4995703;28;20209;-89
2022/11/01 06:37:53;;;;;;;16.10;1.15;;;13.00;99.90;;;;;;4995079;28;20194;-85
2022/11/01 06:40:19;;;;;;;5.20;1.10;;;13.00;99.90;;;;;;4995593;28;20252;-88
2022/11/01 06:42:44;;;;;;;8.05;1.42;;;13.10;99.90;;;;;;4995531;28;20196;-88
2022/11/01 06:45:10;;;;;;;9.88;1.27;;;13.10;99.90;;;;;;4995409;28;20165;-88
2022/11/01 06:47:36;;;;;;;5.95;1.27;;;13.00;99.90;;;;;;4995290;28;20241;-82
2022/11/01 06:50:02;;;;;;;9.90;1.42;;;13.10;99.90;;;;;;4995476;28;20256;-87
2022/11/01 06:52:27;;;;;;;6.25;1.27;;;13.10;99.90;;;;;;4995497;28;20169;-89
2022/11/01 06:54:53;;;;;;;13.02;1.92;;;13.10;99.90;;;;;;4995146;28;20209;-90
2022/11/01 06:57:18;;;;;;;6.65;1.38;;;13.00;99.90;;;;;;4995434;28;20208;-89
2022/11/01 06:59:44;;;;;;;8.38;1.48;;;13.00;99.90;;;;;;4994801;28;20177;-85
2022/11/01 07:02:10;;;;;;;12.63;2.35;;;13.00;99.90;;;;;;4993908;28;20260;-76
2022/11/01 07:04:36;;;;;;;6.20;1.20;;;13.10;99.90;;;;;;4993837;28;20531;-76
2022/11/01 07:07:02;;;;;;;6.68;1.40;;;13.10;99.90;;;;;;4993920;28;20217;-81
2022/11/01 07:09:27;;;;;;;6.25;1.10;;;13.10;99.90;;;;;;4995150;28;20169;-87
2022/11/01 07:11:53;;;;;;;11.88;2.22;;;13.10;99.90;;;;;;4994407;28;20750;-83
2022/11/01 07:14:18;;;;;;;10.55;1.20;;;13.20;99.90;;;;;;4994113;28;20212;-80
2022/11/01 07:16:44;;;;;;;5.35;1.40;;;13.10;99.90;;;;;;4995084;28;20292;-86
2022/11/01 07:19:10;;;;;;;7.80;1.20;;;13.10;99.90;;;;;;4994527;28;20312;-79
2022/11/01 07:21:35;;;;;;;4.28;1.35;;;13.20;99.90;;;;;;4994364;28;20508;-79
2022/11/01 07:24:01;;;;;;;5.35;1.30;;;13.20;99.90;;;;;;4994647;28;20186;-81
2022/11/01 07:26:27;;;;;;;6.63;1.60;;;13.30;99.90;;;;;;4994190;28;20212;-89
2022/11/01 07:28:52;;;;;;;6.40;1.67;;;13.40;99.90;;;;;;4993924;28;20165;-87
2022/11/01 07:31:18;;;;;;;9.57;2.13;;;13.40;99.90;;;;;;4994123;28;20570;-85
2022/11/01 07:33:43;;;;;;;12.38;1.73;;;13.40;99.90;;;;;;4993355;28;20287;-82
2022/11/01 07:36:09;;;;;;;9.57;1.58;;;13.40;99.90;;;;;;4993440;28;20176;-77
2022/11/01 07:38:34;;;;;;;4.72;1.50;;;13.50;99.90;;;;;;4993857;28;20189;-77
2022/11/01 07:41:03;;;;;;;10.02;1.88;;;13.40;99.90;;;;;;4993924;28;20534;-76
2022/11/01 07:43:28;;;;;;;11.57;1.67;;;13.40;99.90;;;;;;4992941;28;20201;-78
2022/11/01 07:45:59;;;;;;;10.75;2.70;;;13.40;99.90;;;;;;4994952;28;20200;-84
2022/11/01 07:48:24;;;;;;;11.55;1.67;;;13.40;99.90;;;;;;4994450;28;20191;-76
2022/11/01 07:50:54;;;;;;;11.05;1.73;;;13.40;99.90;;;;;;4994611;28;20252;-82
2022/11/01 07:53:19;;;;;;;7.25;1.35;;;13.40;99.90;;;;;;4992194;28;20212;-76
2022/11/01 07:55:45;;;;;;;10.07;1.30;;;13.50;99.90;;;;;;4992992;28;20208;-76
2022/11/01 07:58:12;;;;;;;8.32;1.50;;;13.50;99.90;;;;;;4992848;28;20188;-77
2022/11/01 08:00:40;;;;;;;7.13;2.05;;;13.60;99.90;;;;;;4992935;28;20169;-83
2022/11/01 08:03:08;;;;;;;16.58;1.85;;;13.60;99.90;;;;;;5013350;28;20173;-87
2022/11/01 08:05:34;;;;;;;5.93;1.08;;;13.60;99.90;;;;;;5009708;28;20184;-83
2022/11/01 08:08:00;;;;;;;10.48;1.73;;;13.70;99.90;;;;;;4997232;28;20264;-90
2022/11/01 08:10:27;;;;;;;12.25;1.20;;;13.70;99.90;;;;;;5013848;28;20242;-89
2022/11/01 08:13:02;;;;;;;11.43;1.50;;;13.60;99.90;;;;;;5013456;28;20655;-96
2022/11/01 08:15:28;;;;;;;11.02;2.08;;;13.80;99.90;;;;;;5015027;28;20206;-95
2022/11/01 08:17:55;;;;;;;8.63;1.65;;;13.70;99.90;;;;;;5016273;28;20196;-92
2022/11/01 08:20:22;;;;;;;10.45;1.77;;;13.70;99.90;;;;;;5017191;28;20164;-92
2022/11/01 08:22:47;;;;;;;11.00;1.73;;;13.70;99.90;;;;;;5015532;28;20203;-92
2022/11/01 08:25:13;;;;;;;16.25;2.20;;;13.80;99.90;;;;;;5014461;28;20939;-92
2022/11/01 08:27:38;;;;;;;14.40;2.08;;;13.80;99.90;;;;;;5014874;28;20180;-90
2022/11/01 08:30:04;;;;;;;17.90;1.98;;;13.90;99.90;;;;;;5015620;28;20623;-93
2022/11/01 08:32:30;;;;;;;18.35;2.05;;;13.90;99.90;;;;;;5015568;28;20200;-92
2022/11/01 08:34:56;;;;;;;16.88;2.60;;;13.90;99.90;;;;;;5016112;28;20207;-92
2022/11/01 08:37:22;;;;;;;16.05;2.03;;;13.90;99.90;;;;;;5015208;28;20258;-92
2022/11/01 08:39:48;;;;;;;17.23;1.60;;;14.00;99.90;;;;;;5015226;28;20234;-91
2022/11/01 08:42:13;;;;;;;8.13;1.67;;;14.00;99.90;;;;;;5014264;28;20631;-89
2022/11/01 08:44:39;;;;;;;12.80;1.65;;;14.00;99.90;;;;;;5014731;28;20160;-92
2022/11/01 08:47:05;;;;;;;10.93;1.52;;;14.00;99.90;;;;;;5014981;28;20658;-92
2022/11/01 08:49:30;;;;;;;9.68;1.77;;;14.10;99.90;;;;;;5017329;28;20168;-90
2022/11/01 08:51:56;;;;;;;7.00;1.77;;;14.10;99.90;;;;;;5016654;28;20161;-90
2022/11/01 08:54:22;;;;;;;13.32;1.60;;;14.00;99.90;;;;;;5016180;28;20287;-92
2022/11/01 08:56:47;;;;;;;15.55;1.80;;;13.90;99.90;;;;;;5016834;28;20196;-88
2022/11/01 08:59:13;;;;;;;15.98;2.40;;;14.00;99.90;;;;;;5018894;28;20668;-92
2022/11/01 09:01:38;;;;;;;18.17;1.75;;;14.20;99.90;;;;;;5034521;28;20164;-92
2022/11/01 09:04:05;;;;;;;5.88;1.20;;;14.30;99.90;;;;;;5018982;28;20173;-92
2022/11/01 09:06:31;;;;;;;9.02;1.75;;;14.40;99.90;;;;;;5036747;28;20177;-88
2022/11/01 09:08:56;;;;;;;12.38;2.40;;;14.30;99.90;;;;;;5019985;28;20164;-90
2022/11/01 09:11:23;;;;;;;12.57;1.85;;;14.40;99.90;;;;;;5019123;28;20175;-88
2022/11/01 09:13:49;;;;;;;13.60;2.15;;;14.40;99.90;;;;;;5021799;28;20264;-86
2022/11/01 09:16:17;;;;;;;7.40;1.63;;;14.50;99.90;;;;;;5023120;28;20621;-91
2022/11/01 09:18:43;;;;;;;9.20;1.55;;;14.60;99.90;;;;;;5020623;28;20669;-85
2022/11/01 09:21:09;;;;;;;11.32;1.65;;;14.60;99.90;;;;;;5020654;28;20191;-92
2022/11/01 09:23:35;;;;;;;14.43;1.73;;;14.50;99.90;;;;;;5018701;28;20167;-92
2022/11/01 09:26:10;;;;;;;17.20;2.15;;;14.60;99.90;;;;;;5020952;28;20611;-92
2022/11/01 09:28:36;;;;;;;9.52;1.95;;;14.70;99.90;;;;;;5027002;28;20210;-84
2022/11/01 09:31:04;;;;;;;13.80;3.17;;;14.70;99.90;;;;;;5025117;28;20169;-91
2022/11/01 09:33:30;;;;;;;8.15;1.58;;;14.80;99.90;;;;;;5020238;28;20184;-87
2022/11/01 09:35:56;;;;;;;11.25;1.73;;;14.90;99.90;;;;;;5024722;28;20175;-90
2022/11/01 09:38:22;;;;;;;17.45;1.65;;;15.10;99.90;;;;;;5022201;28;20188;-90
2022/11/01 09:41:00;;;;;;;12.68;1.20;;;15.10;99.90;;;;;;5022471;28;20177;-86
2022/11/01 09:43:29;;;;;;;7.68;1.20;;;15.00;99.90;;;;;;5020690;28;20168;-91
2022/11/01 09:45:59;;;;;;;5.00;1.30;;;15.00;99.90;;;;;;5023791;28;20179;-88
2022/11/01 09:48:30;;;;;;;13.70;1.92;;;14.90;99.90;;;;;;5035733;28;20181;-88
2022/11/01 09:50:57;;;;;;;9.48;1.60;;;14.90;99.90;;;;;;5028121;28;20200;-87
2022/11/01 09:53:27;;;;;;;8.73;1.63;;;15.00;99.90;;;;;;5028598;28;20183;-81
2022/11/01 09:56:21;;;;;;;6.22;2.00;;;15.00;99.90;;;;;;5004242;28;20267;-89
2022/11/01 09:59:11;;;;;;;12.48;2.22;;;15.10;99.90;;;;;;5017690;28;20648;-90
2022/11/01 10:02:14;;;;;;;5.85;1.67;;;15.10;99.90;;;;;;5017604;28;20628;-89
2022/11/01 10:04:50;;;;;;;6.70;1.58;;;15.10;99.90;;;;;;5016530;28;20712;-86
2022/11/01 10:07:26;;;;;;;6.80;1.50;;;15.10;99.90;;;;;;5019583;28;20629;-90
2022/11/01 10:10:17;;;;;;;16.80;1.77;;;15.20;99.90;;;;;;5017874;28;20160;-84
2022/11/01 10:13:06;;;;;;;12.57;1.67;;;15.30;99.90;;;;;;5016109;28;20188;-90
2022/11/01 10:15:54;;;;;;;6.65;1.52;;;15.40;99.90;;;;;;5022801;28;20342;-93
2022/11/01 10:18:31;;;;;;;9.38;1.70;;;15.40;99.90;;;;;;5030408;28;20215;-79
2022/11/01 10:21:02;;;;;;;15.68;1.85;;;15.40;99.90;;;;;;5031537;28;20184;-85
2022/11/01 10:23:48;;;;;;;6.55;1.65;;;15.40;99.90;;;;;;5030623;28;20169;-78
2022/11/01 10:26:27;;;;;;;18.90;2.08;;;15.50;99.90;;;;;;5026705;28;20192;-79
2022/11/01 10:29:17;;;;;;;11.55;2.45;;;15.60;99.90;;;;;;5022164;28;20168;-77
2022/11/01 10:31:50;;;;;;;9.68;2.08;;;15.60;99.90;;;;;;5018999;28;20164;-86
2022/11/01 10:34:21;;;;;;;6.65;2.22;;;15.60;99.90;;;;;;5020174;28;20208;-94
2022/11/01 10:36:48;;;;;;;4.57;1.35;;;15.60;99.90;;;;;;5019286;28;20208;-95
2022/11/01 10:39:32;;;;;;;10.23;3.10;;;15.60;99.90;;;;;;5023975;28;20176;-78
2022/11/01 10:42:06;;;;;;;7.10;2.00;;;15.60;99.90;;;;;;5028710;28;20653;-93
2022/11/01 10:44:42;;;;;;;4.80;1.42;;;15.60;99.90;;;;;;5022227;28;20168;-85
2022/11/01 10:47:14;;;;;;;11.27;1.70;;;15.70;99.90;;;;;;5015934;28;20196;-78
2022/11/01 10:49:51;;;;;;;4.53;1.40;;;15.80;99.90;;;;;;5017318;28;20578;-93
2022/11/01 10:52:22;;;;;;;11.82;2.08;;;15.80;99.90;;;;;;5021977;28;20172;-89
2022/11/01 10:54:50;;;;;;;17.15;1.85;;;15.90;99.90;;;;;;5026048;28;20221;-91
2022/11/01 10:57:34;;;;;;;10.75;2.70;;;15.90;99.90;;;;;;5024013;28;20263;-93
2022/11/01 11:00:05;;;;;;;8.20;1.50;;;16.10;99.90;;;;;;5018903;28;20203;-92
2022/11/01 11:02:44;;;;;;;5.45;1.45;;;16.10;99.90;;;;;;5002903;28;20219;-87
2022/11/01 11:05:13;;;;;;;12.38;1.65;;;16.10;99.90;;;;;;5016445;28;20211;-88
2022/11/01 11:07:38;;;;;;;7.40;1.58;;;16.00;99.90;;;;;;5015163;28;20191;-82
2022/11/01 11:10:39;;;;;;;7.63;1.75;;;15.90;99.90;;;;;;5014599;28;20561;-85
2022/11/01 11:13:06;;;;;;;11.20;1.65;;;16.00;99.90;;;;;;5013614;28;20188;-78
2022/11/01 11:15:42;;;;;;;7.53;1.30;;;16.00;99.90;;;;;;5023429;28;20220;-82
2022/11/01 11:18:19;;;;;;;9.48;1.85;;;15.90;99.90;;;;;;5013859;28;20188;-89
2022/11/01 11:20:51;;;;;;;5.28;2.25;;;16.00;99.90;;;;;;5032667;28;20219;-77
2022/11/01 11:23:23;;;;;;;7.70;1.73;;;16.10;99.90;;;;;;5031590;28;20165;-88
2022/11/01 11:25:52;;;;;;;19.75;3.13;;;16.10;99.90;;;;;;5030612;28;20208;-88
2022/11/01 11:28:27;;;;;;;7.05;1.92;;;16.00;99.90;;;;;;5036577;28;20220;-79
2022/11/01 11:30:53;;;;;;;7.32;2.20;;;16.00;99.90;;;;;;5032223;28;20184;-93
2022/11/01 11:33:40;;;;;;;10.35;1.92;;;16.00;99.90;;;;;;5033692;28;20159;-80
2022/11/01 11:36:57;;;;;;;12.10;1.95;;;16.00;99.90;;;;;;5037701;28;20211;-77
2022/11/01 11:39:37;;;;;;;9.90;1.60;;;16.10;99.90;;;;;;5038835;28;20172;-85
2022/11/01 11:42:44;;;;;;;6.32;1.40;;;16.00;99.90;;;;;;5038419;28;20195;-78
2022/11/01 11:46:02;;;;;;;8.68;1.67;;;16.10;99.90;;;;;;5042780;28;20185;-84
2022/11/01 11:49:26;;;;;;;6.75;1.35;;;16.30;99.90;;;;;;5037985;28;20197;-78
2022/11/01 11:52:30;;;;;;;7.80;1.55;;;16.10;99.90;;;;;;5036846;28;20168;-78
2022/11/01 11:55:35;;;;;;;13.10;2.25;;;16.10;99.90;;;;;;5029298;28;20223;-95
2022/11/01 11:58:13;;;;;;;7.38;1.30;;;16.20;99.90;;;;;;5024428;28;20180;-92
2022/11/01 12:00:52;;;;;;;12.75;1.20;;;16.30;99.90;;;;;;5034042;28;20180;-90
2022/11/01 12:03:19;;;;;;;7.22;1.63;;;16.30;99.90;;;;;;5032229;28;20188;-93
2022/11/01 12:06:04;;;;;;;10.63;1.60;;;16.30;99.90;;;;;;5017576;28;20168;-92
2022/11/01 12:08:47;;;;;;;5.25;1.45;;;16.40;99.90;;;;;;5023883;28;20208;-90
2022/11/01 12:11:14;;;;;;;10.88;2.08;;;16.40;99.90;;;;;;5024049;28;20260;-80
2022/11/01 12:13:58;;;;;;;9.02;1.85;;;16.40;99.90;;;;;;5013990;28;20666;-83
2022/11/01 12:16:24;;;;;;;14.63;1.88;;;16.40;99.90;;;;;;5016913;28;20190;-79
2022/11/01 12:18:58;;;;;;;7.47;1.70;;;16.40;99.90;;;;;;5013125;28;20208;-77
2022/11/01 12:21:42;;;;;;;5.47;1.08;;;16.40;99.90;;;;;;5013459;28;20172;-79
2022/11/01 12:24:40;;;;;;;10.80;1.85;;;16.50;99.90;;;;;;5019402;28;20161;-84
2022/11/01 12:27:28;;;;;;;5.63;1.58;;;16.50;99.90;;;;;;5032765;28;20200;-82
2022/11/01 12:30:03;;;;;;;9.00;1.52;;;16.50;99.90;;;;;;5029431;28;20184;-86
2022/11/01 12:32:37;;;;;;;5.85;1.58;;;16.40;99.90;;;;;;5028902;28;20649;-89
2022/11/01 12:35:37;;;;;;;5.22;1.42;;;16.40;99.90;;;;;;5030824;28;20216;-80
2022/11/01 12:38:31;;;;;;;6.82;1.85;;;16.50;99.90;;;;;;5032298;28;20203;-89
2022/11/01 12:41:34;;;;;;;4.90;1.42;;;16.50;99.90;;;;;;5034342;28;20188;-83
2022/11/01 12:44:35;;;;;;;9.73;1.55;;;16.50;99.90;;;;;;5024324;28;20203;-89
2022/11/01 12:47:16;;;;;;;7.57;1.55;;;16.50;99.90;;;;;;5019719;28;20234;-91
2022/11/01 12:50:00;;;;;;;11.85;1.67;;;16.50;99.90;;;;;;5023479;28;20152;-84
2022/11/01 12:52:35;;;;;;;8.20;1.40;;;16.60;99.90;;;;;;5025976;28;20179;-93
2022/11/01 12:55:12;;;;;;;8.50;1.30;;;16.70;99.90;;;;;;5020291;28;20203;-87
2022/11/01 12:57:39;;;;;;;23.00;1.65;;;16.70;99.90;;;;;;5017829;28;20190;-89
2022/11/01 13:00:06;;;;;;;9.02;1.70;;;16.60;99.90;;;;;;5019798;28;20165;-91
2022/11/01 13:02:38;;;;;;;7.15;1.95;;;16.60;99.90;;;;;;5019148;28;20164;-88
2022/11/01 13:05:06;;;;;;;7.25;1.45;;;16.60;99.90;;;;;;5018276;28;20168;-91
2022/11/01 13:07:40;;;;;;;6.57;1.40;;;16.60;99.90;;;;;;5019027;28;20191;-90
2022/11/01 13:10:06;;;;;;;4.57;1.15;;;16.70;99.90;;;;;;5019687;28;20516;-92
2022/11/01 13:12:55;;;;;;;16.13;1.50;;;16.60;99.90;;;;;;5019846;28;20179;-91
2022/11/01 13:15:35;;;;;;;4.82;1.60;;;16.60;99.90;;;;;;5018746;28;20212;-89